Glorious Sakura — 3FOG5 — position and weather

sailwx.info

Track history (hours):
 
Tides and Currents Weather Stations Pressure Air Temp Water Temp Dewpoint Dewpoint Depression Visibility Wind Speed Wind Dir Waves Ship Positions

Glorious Sakura

Last reported at 2018-Jan-19 02:06 UTC. Time now 2018-Jan-19 23:35 UTC.
Position N 34°30' E 137°03'.

Length 210 m; draft 7.2 m.

Type: Cargo ship. MMSI: 370962000.

Date/timePositionNaut miles runAvg speedWind from/ knotsBaromVisibWave heightAir tempDewpointWater temp
2018-Jan-19 02:06N 34°30' E 137°03'111.6
2018-Jan-19 02:00N 34°31' E 137°03'511.0
2018-Jan-19 01:30N 34°35' E 136°58'714.0
2018-Jan-19 01:00N 34°39' E 136°51'713.9
2018-Jan-19 00:30N 34°45' E 136°47'714.1
2018-Jan-19 00:00N 34°52' E 136°46'713.3
2018-Jan-18 23:30N 34°59' E 136°46'4 6.7
2018-Jan-18 22:58N 35°02' E 136°49'0 0.0
2018-Jan-18 22:28N 35°02' E 136°49'0 0.0
2018-Jan-18 21:58N 35°02' E 136°49'0 0.0
2018-Jan-18 21:28N 35°02' E 136°49'0 0.0
2018-Jan-18 20:58N 35°02' E 136°49'0 0.0
2018-Jan-18 20:28N 35°02' E 136°49'0 0.0
2018-Jan-18 19:58N 35°02' E 136°49'0 0.0
2018-Jan-18 19:28N 35°02' E 136°49'0 0.0
2018-Jan-18 18:55N 35°02' E 136°49'0 0.0
2018-Jan-18 18:28N 35°02' E 136°49'0 0.0
2018-Jan-18 17:58N 35°02' E 136°49'0 0.0
2018-Jan-18 17:28N 35°02' E 136°49'0 0.0
2018-Jan-18 16:58N 35°02' E 136°49'0 0.0
2018-Jan-18 16:28N 35°02' E 136°49'0 0.0
2018-Jan-18 15:58N 35°02' E 136°49'0 0.0
2018-Jan-18 15:28N 35°02' E 136°49'0 0.0
2018-Jan-18 14:58N 35°02' E 136°49'0 0.0
2018-Jan-18 14:28N 35°02' E 136°49'0 0.0
2018-Jan-18 13:58N 35°02' E 136°49'0 0.0
2018-Jan-18 13:28N 35°02' E 136°49'0 0.0
2018-Jan-18 12:58N 35°02' E 136°49'0 0.0
2018-Jan-18 12:28N 35°02' E 136°49'0 0.0
2018-Jan-18 11:58N 35°02' E 136°49'0 0.0
2018-Jan-18 11:28N 35°02' E 136°49'0 0.0
2018-Jan-18 10:58N 35°02' E 136°49'0 0.0
2018-Jan-18 10:28N 35°02' E 136°49'0 0.0
2018-Jan-18 09:58N 35°02' E 136°49'0 0.0
2018-Jan-18 09:28N 35°02' E 136°49'0 0.0
2018-Jan-18 08:58N 35°02' E 136°49'0 0.0
2018-Jan-18 08:28N 35°02' E 136°49'0 0.0
2018-Jan-18 07:58N 35°02' E 136°49'0 0.0
2018-Jan-18 07:28N 35°02' E 136°49'0 0.0
2018-Jan-18 06:58N 35°02' E 136°49'0 0.0
2018-Jan-18 06:28N 35°02' E 136°49'0 0.0
2018-Jan-18 05:58N 35°02' E 136°49'0 0.0
2018-Jan-18 05:28N 35°02' E 136°49'0 0.0
2018-Jan-18 04:58N 35°02' E 136°49'0 0.0
2018-Jan-18 04:28N 35°02' E 136°49'0 0.0
2018-Jan-18 03:58N 35°02' E 136°49'0 0.0
2018-Jan-18 03:28N 35°02' E 136°49'0 0.0
2018-Jan-18 02:58N 35°02' E 136°49'0 0.0
2018-Jan-18 02:28N 35°02' E 136°49'0 0.0
2018-Jan-18 01:58N 35°02' E 136°49'0 0.0
2018-Jan-18 01:28N 35°02' E 136°49'0 0.0
2018-Jan-18 00:58N 35°02' E 136°49'0 0.0
2018-Jan-17 23:58N 35°02' E 136°49'0 0.0
2018-Jan-17 23:55N 35°02' E 136°49'  
2018-Jan-12 14:57N 31°17' E 121°50'10 6.7
2018-Jan-12 13:31N 31°21' E 121°40'2 4.5
2018-Jan-12 13:01N 31°22' E 121°38'0 3.2
2018-Jan-12 13:00N 31°22' E 121°38'2 4.6
2018-Jan-12 12:30N 31°23' E 121°35'3 5.7
2018-Jan-12 11:59N 31°24' E 121°32'2 4.2
2018-Jan-12 11:29N 31°25' E 121°30'3 5.4
2018-Jan-12 11:01N 31°27' E 121°28'3 6.4
2018-Jan-12 10:31N 31°30' E 121°25'5 9.3
2018-Jan-12 10:01N 31°32' E 121°21'510.8
2018-Jan-12 09:31N 31°36' E 121°17'612.3
2018-Jan-12 09:00N 31°41' E 121°11'713.0
2018-Jan-12 08:30N 31°45' E 121°05'  
Track history (hours):
 
Tides and Currents Weather Stations Pressure Air Temp Water Temp Dewpoint Dewpoint Depression Visibility Wind Speed Wind Dir Waves Ship Positions

Glorious Sakura

Last reported at 2018-Jan-19 02:06 UTC. Time now 2018-Jan-19 23:35 UTC.
Position N 34°30' E 137°03'.

Length 210 m; draft 7.2 m.

Type: Cargo ship. MMSI: 370962000.

Date/timePositionNaut miles runAvg speedWind from/ knotsBaromVisibWave heightAir tempDewpointWater temp
2018-Jan-19 02:06N 34°30' E 137°03'111.6
2018-Jan-19 02:00N 34°31' E 137°03'511.0
2018-Jan-19 01:30N 34°35' E 136°58'714.0
2018-Jan-19 01:00N 34°39' E 136°51'713.9
2018-Jan-19 00:30N 34°45' E 136°47'714.1
2018-Jan-19 00:00N 34°52' E 136°46'713.3
2018-Jan-18 23:30N 34°59' E 136°46'4 6.7
2018-Jan-18 22:58N 35°02' E 136°49'0 0.0
2018-Jan-18 22:28N 35°02' E 136°49'0 0.0
2018-Jan-18 21:58N 35°02' E 136°49'0 0.0
2018-Jan-18 21:28N 35°02' E 136°49'0 0.0
2018-Jan-18 20:58N 35°02' E 136°49'0 0.0
2018-Jan-18 20:28N 35°02' E 136°49'0 0.0
2018-Jan-18 19:58N 35°02' E 136°49'0 0.0
2018-Jan-18 19:28N 35°02' E 136°49'0 0.0
2018-Jan-18 18:55N 35°02' E 136°49'0 0.0
2018-Jan-18 18:28N 35°02' E 136°49'0 0.0
2018-Jan-18 17:58N 35°02' E 136°49'0 0.0
2018-Jan-18 17:28N 35°02' E 136°49'0 0.0
2018-Jan-18 16:58N 35°02' E 136°49'0 0.0
2018-Jan-18 16:28N 35°02' E 136°49'0 0.0
2018-Jan-18 15:58N 35°02' E 136°49'0 0.0
2018-Jan-18 15:28N 35°02' E 136°49'0 0.0
2018-Jan-18 14:58N 35°02' E 136°49'0 0.0
2018-Jan-18 14:28N 35°02' E 136°49'0 0.0
2018-Jan-18 13:58N 35°02' E 136°49'0 0.0
2018-Jan-18 13:28N 35°02' E 136°49'0 0.0
2018-Jan-18 12:58N 35°02' E 136°49'0 0.0
2018-Jan-18 12:28N 35°02' E 136°49'0 0.0
2018-Jan-18 11:58N 35°02' E 136°49'0 0.0
2018-Jan-18 11:28N 35°02' E 136°49'0 0.0
2018-Jan-18 10:58N 35°02' E 136°49'0 0.0
2018-Jan-18 10:28N 35°02' E 136°49'0 0.0
2018-Jan-18 09:58N 35°02' E 136°49'0 0.0
2018-Jan-18 09:28N 35°02' E 136°49'0 0.0
2018-Jan-18 08:58N 35°02' E 136°49'0 0.0
2018-Jan-18 08:28N 35°02' E 136°49'0 0.0
2018-Jan-18 07:58N 35°02' E 136°49'0 0.0
2018-Jan-18 07:28N 35°02' E 136°49'0 0.0
2018-Jan-18 06:58N 35°02' E 136°49'0 0.0
2018-Jan-18 06:28N 35°02' E 136°49'0 0.0
2018-Jan-18 05:58N 35°02' E 136°49'0 0.0
2018-Jan-18 05:28N 35°02' E 136°49'0 0.0
2018-Jan-18 04:58N 35°02' E 136°49'0 0.0
2018-Jan-18 04:28N 35°02' E 136°49'0 0.0
2018-Jan-18 03:58N 35°02' E 136°49'0 0.0
2018-Jan-18 03:28N 35°02' E 136°49'0 0.0
2018-Jan-18 02:58N 35°02' E 136°49'0 0.0
2018-Jan-18 02:28N 35°02' E 136°49'0 0.0
2018-Jan-18 01:58N 35°02' E 136°49'0 0.0
2018-Jan-18 01:28N 35°02' E 136°49'0 0.0
2018-Jan-18 00:58N 35°02' E 136°49'0 0.0
2018-Jan-17 23:58N 35°02' E 136°49'0 0.0
2018-Jan-17 23:55N 35°02' E 136°49'  
2018-Jan-12 14:57N 31°17' E 121°50'10 6.7
2018-Jan-12 13:31N 31°21' E 121°40'2 4.5
2018-Jan-12 13:01N 31°22' E 121°38'0 3.2
2018-Jan-12 13:00N 31°22' E 121°38'2 4.6
2018-Jan-12 12:30N 31°23' E 121°35'3 5.7
2018-Jan-12 11:59N 31°24' E 121°32'2 4.2
2018-Jan-12 11:29N 31°25' E 121°30'3 5.4
2018-Jan-12 11:01N 31°27' E 121°28'3 6.4
2018-Jan-12 10:31N 31°30' E 121°25'5 9.3
2018-Jan-12 10:01N 31°32' E 121°21'510.8
2018-Jan-12 09:31N 31°36' E 121°17'612.3
2018-Jan-12 09:00N 31°41' E 121°11'713.0
2018-Jan-12 08:30N 31°45' E 121°05'  

Dump ship's entire track history